Time;durP1;ratioP1;P1;durP2;ratioP2;P2;SDS_P1;SDS_P2;PMS_P1;PMS_P2;Temp;Humidity;BMP_temperature;BMP_pressure;BME280_temperature;BME280_humidity;BME280_pressure;Samples;Min_cycle;Max_cycle;Signal;HPM_P1;HPM_P2
2023/03/17 00:00:09;;;;;;;;;;;;;;;8.37;59.97;100771.47;5026574;28;19921;-64
2023/03/17 00:02:34;;;;;;;;;;;;;;;8.34;59.95;100762.03;5023742;28;19921;-63
2023/03/17 00:04:59;;;;;;;;;;;;;;;8.32;60.23;100769.25;5023815;28;19920;-63
2023/03/17 00:07:25;;;;;;;;;;;;;;;8.31;60.52;100772.06;5021583;28;20046;-63
2023/03/17 00:09:50;;;;;;;;;;;;;;;8.29;60.80;100768.75;5027493;28;20015;-63
2023/03/17 00:12:16;;;;;;;;;;;;;;;8.27;60.47;100768.09;5027967;28;20406;-63
2023/03/17 00:14:43;;;;;;;;;;;;;;;8.24;60.85;100768.41;5025530;28;19960;-63
2023/03/17 00:17:09;;;;;;;;;;;;;;;8.22;61.38;100765.09;5028303;28;19947;-62
2023/03/17 00:19:34;;;;;;;;;;;;;;;8.18;61.49;100764.56;5022318;28;19915;-62
2023/03/17 00:22:01;;;;;;;;;;;;;;;8.18;61.14;100756.63;5026789;28;19913;-63
2023/03/17 00:24:27;;;;;;;;;;;;;;;8.19;60.57;100747.72;5021756;28;19913;-63
2023/03/17 00:26:52;;;;;;;;;;;;;;;8.17;61.03;100736.47;5025711;28;19920;-63
2023/03/17 00:29:18;;;;;;;;;;;;;;;8.15;61.22;100730.50;5026005;28;19924;-63
2023/03/17 00:31:44;;;;;;;;;;;;;;;8.15;61.31;100729.69;5021623;28;19976;-63
2023/03/17 00:34:12;;;;;;;;;;;;;;;8.11;61.63;100728.34;5022353;28;19947;-63
2023/03/17 00:36:37;;;;;;;;;;;;;;;8.10;61.14;100722.22;5023023;28;20378;-63
2023/03/17 00:39:05;;;;;;;;;;;;;;;8.10;61.36;100722.22;5019620;28;19962;-63
2023/03/17 00:41:30;;;;;;;;;;;;;;;8.09;61.45;100731.09;5017090;28;19928;-62
2023/03/17 00:43:56;;;;;;;;;;;;;;;8.06;61.42;100736.72;5029686;28;19921;-63
2023/03/17 00:46:26;;;;;;;;;;;;;;;8.06;61.51;100734.06;5031255;28;19913;-62
2023/03/17 00:48:52;;;;;;;;;;;;;;;8.07;61.10;100738.38;5021884;28;20386;-63
2023/03/17 00:51:17;;;;;;;;;;;;;;;8.08;61.30;100737.38;5023781;28;19964;-63
2023/03/17 00:53:42;;;;;;;;;;;;;;;8.08;61.31;100740.03;5030044;28;20326;-63
2023/03/17 00:56:15;;;;;;;;;;;;;;;8.06;61.25;100732.25;5024862;28;19936;-63
2023/03/17 00:58:41;;;;;;;;;;;;;;;8.04;61.43;100731.59;5028025;28;19968;-63
2023/03/17 01:01:07;;;;;;;;;;;;;;;8.04;61.43;100728.13;5031756;28;19916;-63
2023/03/17 01:03:33;;;;;;;;;;;;;;;8.00;61.52;100727.59;5025694;28;20333;-63
2023/03/17 01:05:58;;;;;;;;;;;;;;;7.99;61.41;100720.66;5025066;28;20387;-63
2023/03/17 01:08:24;;;;;;;;;;;;;;;7.99;61.63;100719.81;5031581;28;19975;-62
2023/03/17 01:10:50;;;;;;;;;;;;;;;7.96;61.56;100725.44;5027322;28;20001;-63
2023/03/17 01:13:15;;;;;;;;;;;;;;;7.94;61.33;100724.75;5024285;28;19921;-63
2023/03/17 01:15:41;;;;;;;;;;;;;;;7.93;61.54;100726.56;5028941;28;19920;-63
2023/03/17 01:18:08;;;;;;;;;;;;;;;7.91;61.78;100725.91;5032204;28;20004;-63
2023/03/17 01:20:34;;;;;;;;;;;;;;;7.86;61.70;100722.91;5029260;28;19918;-63
2023/03/17 01:23:00;;;;;;;;;;;;;;;7.83;61.99;100722.38;5028911;28;19924;-63
2023/03/17 01:25:26;;;;;;;;;;;;;;;7.81;61.81;100717.25;5023191;28;20007;-63
2023/03/17 01:27:52;;;;;;;;;;;;;;;7.77;61.96;100722.00;5029949;28;20000;-63
2023/03/17 01:30:21;;;;;;;;;;;;;;;7.75;62.02;100704.63;5023454;28;19917;-63
2023/03/17 01:32:46;;;;;;;;;;;;;;;7.75;61.94;100707.28;5026235;28;19923;-63
2023/03/17 01:35:12;;;;;;;;;;;;;;;7.73;62.17;100701.31;5022771;28;19916;-62
2023/03/17 01:37:37;;;;;;;;;;;;;;;7.73;62.00;100707.44;5028258;28;19917;-63
2023/03/17 01:40:04;;;;;;;;;;;;;;;7.72;62.44;100708.41;5023994;28;20157;-63
2023/03/17 01:42:29;;;;;;;;;;;;;;;7.72;62.35;100704.94;5027573;28;19917;-62
2023/03/17 01:44:58;;;;;;;;;;;;;;;7.71;62.43;100698.00;5024097;28;20371;-63
2023/03/17 01:47:25;;;;;;;;;;;;;;;7.72;62.33;100691.72;5028887;28;20426;-63
2023/03/17 01:49:50;;;;;;;;;;;;;;;7.70;62.58;100697.19;5023141;28;19925;-63
2023/03/17 01:52:16;;;;;;;;;;;;;;;7.70;62.42;100699.81;5029284;28;19917;-63
2023/03/17 01:54:44;;;;;;;;;;;;;;;7.70;62.12;100696.34;5019525;28;19922;-63
2023/03/17 01:57:18;;;;;;;;;;;;;;;7.68;62.41;100696.50;5026064;28;19920;-63
2023/03/17 01:59:52;;;;;;;;;;;;;;;7.68;62.30;100687.75;5027528;28;19928;-63
2023/03/17 02:02:21;;;;;;;;;;;;;;;7.66;62.30;100687.91;5026446;28;19921;-62
2023/03/17 02:04:47;;;;;;;;;;;;;;;7.65;62.32;100675.69;5026037;28;19998;-63
2023/03/17 02:07:12;;;;;;;;;;;;;;;7.63;62.71;100672.34;5025837;28;19964;-63
2023/03/17 02:09:37;;;;;;;;;;;;;;;7.63;62.34;100663.59;5023359;28;19925;-63
2023/03/17 02:12:04;;;;;;;;;;;;;;;7.63;62.43;100664.44;5023445;28;20402;-63
2023/03/17 02:14:29;;;;;;;;;;;;;;;7.61;62.58;100663.75;5028370;28;19920;-63
2023/03/17 02:16:54;;;;;;;;;;;;;;;7.58;62.92;100661.44;5029622;28;19917;-62
2023/03/17 02:19:19;;;;;;;;;;;;;;;7.58;62.56;100661.44;5028907;28;19940;-63
2023/03/17 02:21:46;;;;;;;;;;;;;;;7.58;62.80;100668.53;5025312;28;19917;-63
2023/03/17 02:24:18;;;;;;;;;;;;;;;7.57;62.78;100673.00;5027129;28;19913;-62
2023/03/17 02:26:44;;;;;;;;;;;;;;;7.58;62.77;100668.53;5028188;28;19921;-62
2023/03/17 02:29:09;;;;;;;;;;;;;;;7.60;62.75;100666.56;5024639;28;19920;-63
2023/03/17 02:31:35;;;;;;;;;;;;;;;7.60;62.62;100658.63;5027812;28;19928;-63
2023/03/17 02:34:00;;;;;;;;;;;;;;;7.60;62.41;100656.81;5029146;28;19971;-63
2023/03/17 02:36:25;;;;;;;;;;;;;;;7.59;62.22;100656.97;5028598;28;19917;-63
2023/03/17 02:38:51;;;;;;;;;;;;;;;7.60;62.30;100650.72;5024463;28;19921;-63
2023/03/17 02:41:16;;;;;;;;;;;;;;;7.60;62.30;100640.97;5028563;28;20426;-63
2023/03/17 02:43:42;;;;;;;;;;;;;;;7.59;62.36;100639.31;5030015;28;19919;-62
2023/03/17 02:46:07;;;;;;;;;;;;;;;7.57;62.63;100643.91;5025022;28;19925;-62
2023/03/17 02:48:34;;;;;;;;;;;;;;;7.56;62.56;100644.91;5023257;28;19925;-63
2023/03/17 02:50:59;;;;;;;;;;;;;;;7.55;62.04;100637.97;5028053;28;19921;-63
2023/03/17 02:53:24;;;;;;;;;;;;;;;7.54;62.79;100633.66;5024016;28;19935;-63
2023/03/17 02:55:50;;;;;;;;;;;;;;;7.54;62.58;100640.75;5028785;28;19917;-63
2023/03/17 02:58:15;;;;;;;;;;;;;;;7.53;62.41;100639.94;5027834;28;19952;-63
2023/03/17 03:00:40;;;;;;;;;;;;;;;7.53;62.74;100636.47;5021536;28;19920;-63
2023/03/17 03:03:05;;;;;;;;;;;;;;;7.50;62.78;100634.94;5022161;28;19924;-63
2023/03/17 03:05:31;;;;;;;;;;;;;;;7.50;62.90;100634.09;5028453;28;19921;-63
2023/03/17 03:07:56;;;;;;;;;;;;;;;7.48;62.97;100639.53;5024384;28;20383;-63
2023/03/17 03:10:21;;;;;;;;;;;;;;;7.46;63.22;100638.88;5024009;28;19928;-63
2023/03/17 03:12:46;;;;;;;;;;;;;;;7.45;63.11;100642.50;5019090;28;19921;-63
2023/03/17 03:15:12;;;;;;;;;;;;;;;7.44;62.94;100644.31;5028956;28;19921;-63
2023/03/17 03:17:37;;;;;;;;;;;;;;;7.43;63.16;100642.66;5027367;28;19913;-63
2023/03/17 03:20:03;;;;;;;;;;;;;;;7.42;63.00;100648.09;5028392;28;19925;-63
2023/03/17 03:22:28;;;;;;;;;;;;;;;7.41;63.30;100647.28;5022257;28;19917;-64
2023/03/17 03:24:53;;;;;;;;;;;;;;;7.41;62.99;100646.44;5026017;28;19932;-62
2023/03/17 03:27:18;;;;;;;;;;;;;;;7.41;63.15;100651.72;5026658;28;19940;-62
2023/03/17 03:29:43;;;;;;;;;;;;;;;7.41;63.12;100652.56;5027223;28;19924;-62
2023/03/17 03:32:09;;;;;;;;;;;;;;;7.39;63.58;100662.44;5020704;28;19931;-62
2023/03/17 03:34:34;;;;;;;;;;;;;;;7.40;63.43;100665.91;5027896;28;19917;-63
2023/03/17 03:36:59;;;;;;;;;;;;;;;7.37;63.57;100668.88;5019361;28;19965;-63
2023/03/17 03:39:25;;;;;;;;;;;;;;;7.36;63.34;100649.56;5024217;28;19963;-63
2023/03/17 03:41:50;;;;;;;;;;;;;;;7.37;63.25;100640.66;5027088;28;19920;-63
2023/03/17 03:44:15;;;;;;;;;;;;;;;7.37;63.27;100645.94;5023161;28;19918;-63
2023/03/17 03:46:40;;;;;;;;;;;;;;;7.38;63.25;100658.16;5017943;28;19937;-63
2023/03/17 03:49:06;;;;;;;;;;;;;;;7.38;63.34;100674.00;5027444;28;20442;-63
2023/03/17 03:51:31;;;;;;;;;;;;;;;7.38;63.50;100662.59;5020551;28;19936;-63
2023/03/17 03:53:56;;;;;;;;;;;;;;;7.36;63.62;100664.56;5026370;28;19917;-63
2023/03/17 03:56:21;;;;;;;;;;;;;;;7.35;63.44;100671.66;5022450;28;19920;-63
2023/03/17 03:58:46;;;;;;;;;;;;;;;7.33;63.27;100673.63;5023669;28;19913;-62
2023/03/17 04:01:12;;;;;;;;;;;;;;;7.32;63.52;100674.63;5019989;28;20419;-63
2023/03/17 04:03:37;;;;;;;;;;;;;;;7.30;63.54;100681.88;5025479;28;19917;-62
2023/03/17 04:06:03;;;;;;;;;;;;;;;7.31;63.65;100688.81;5026497;28;19913;-62
2023/03/17 04:08:28;;;;;;;;;;;;;;;7.32;63.88;100684.38;5027590;28;19917;-63
2023/03/17 04:10:53;;;;;;;;;;;;;;;7.32;63.49;100681.72;5020229;28;20020;-63
2023/03/17 04:13:18;;;;;;;;;;;;;;;7.32;63.28;100679.06;5020432;28;20006;-63
2023/03/17 04:15:44;;;;;;;;;;;;;;;7.34;63.36;100682.41;5023922;28;20303;-63
2023/03/17 04:18:09;;;;;;;;;;;;;;;7.34;63.74;100672.66;5021092;28;19967;-63
2023/03/17 04:20:34;;;;;;;;;;;;;;;7.34;63.41;100667.38;5027162;28;19980;-63
2023/03/17 04:23:00;;;;;;;;;;;;;;;7.35;63.32;100674.31;5020792;28;20409;-63
2023/03/17 04:25:26;;;;;;;;;;;;;;;7.36;63.05;100669.84;5021393;28;19917;-63
2023/03/17 04:27:51;;;;;;;;;;;;;;;7.36;63.32;100670.69;5021036;28;20378;-63
2023/03/17 04:30:16;;;;;;;;;;;;;;;7.36;63.29;100681.25;5023277;28;19929;-63
2023/03/17 04:32:42;;;;;;;;;;;;;;;7.35;63.38;100681.41;5021059;28;19923;-62
2023/03/17 04:35:11;;;;;;;;;;;;;;;7.34;63.33;100677.94;5027325;28;19921;-62
2023/03/17 04:37:37;;;;;;;;;;;;;;;7.35;63.57;100676.13;5028272;28;19963;-63
2023/03/17 04:40:04;;;;;;;;;;;;;;;7.33;63.48;100670.16;5021400;28;19920;-63
2023/03/17 04:42:29;;;;;;;;;;;;;;;7.33;63.59;100675.44;5023438;28;20306;-63
2023/03/17 04:44:54;;;;;;;;;;;;;;;7.25;63.68;100659.56;5020994;28;19913;-63
2023/03/17 04:47:20;;;;;;;;;;;;;;;7.31;63.46;100674.78;5023128;28;19944;-62
2023/03/17 04:49:45;;;;;;;;;;;;;;;7.32;63.60;100682.53;5025859;28;19921;-62
2023/03/17 04:52:11;;;;;;;;;;;;;;;7.31;63.86;100680.06;5022543;28;19960;-64
2023/03/17 04:54:36;;;;;;;;;;;;;;;7.31;63.55;100672.13;5022548;28;20316;-62
2023/03/17 04:57:02;;;;;;;;;;;;;;;7.30;63.79;100670.47;5023328;28;20329;-62
2023/03/17 04:59:27;;;;;;;;;;;;;;;7.31;63.91;100672.97;5023035;28;19924;-62
2023/03/17 05:01:52;;;;;;;;;;;;;;;7.32;63.90;100673.78;5014095;28;20030;-63
2023/03/17 05:04:17;;;;;;;;;;;;;;;7.32;63.81;100664.06;5024208;28;19917;-62
2023/03/17 05:06:42;;;;;;;;;;;;;;;7.34;63.65;100667.38;5028061;28;19956;-63
2023/03/17 05:09:08;;;;;;;;;;;;;;;7.33;63.73;100656.97;5026280;28;19922;-62
2023/03/17 05:11:34;;;;;;;;;;;;;;;7.35;63.79;100658.47;5025597;28;20387;-63
2023/03/17 05:13:59;;;;;;;;;;;;;;;7.36;63.56;100659.28;5023818;28;19914;-63
2023/03/17 05:16:24;;;;;;;;;;;;;;;7.36;63.59;100664.56;5026429;28;20609;-63
2023/03/17 05:18:50;;;;;;;;;;;;;;;7.37;63.68;100660.94;5025042;28;19913;-62
2023/03/17 05:21:15;;;;;;;;;;;;;;;7.37;63.64;100664.41;5024341;28;19913;-63
2023/03/17 05:23:40;;;;;;;;;;;;;;;7.38;63.56;100657.31;5025306;28;19917;-62
2023/03/17 05:26:05;;;;;;;;;;;;;;;7.36;63.69;100664.56;5024449;28;19913;-62
2023/03/17 05:28:31;;;;;;;;;;;;;;;7.37;63.58;100671.50;5026028;28;19928;-63
2023/03/17 05:30:57;;;;;;;;;;;;;;;7.36;63.64;100664.56;5026858;28;19918;-62
2023/03/17 05:33:22;;;;;;;;;;;;;;;7.33;63.76;100665.72;5026609;28;19917;-62
2023/03/17 05:35:47;;;;;;;;;;;;;;;7.33;63.68;100664.88;5026528;28;19917;-63
2023/03/17 05:38:14;;;;;;;;;;;;;;;7.32;64.03;100679.06;5027804;28;19929;-63
2023/03/17 05:40:39;;;;;;;;;;;;;;;7.31;64.00;100675.59;5030350;28;19959;-63
2023/03/17 05:43:04;;;;;;;;;;;;;;;7.31;63.73;100672.97;5027212;28;19956;-62
2023/03/17 05:45:30;;;;;;;;;;;;;;;7.29;64.18;100676.75;5026792;28;19964;-63
2023/03/17 05:47:55;;;;;;;;;;;;;;;7.26;64.33;100682.34;5028267;28;19917;-63
2023/03/17 05:50:21;;;;;;;;;;;;;;;7.26;64.36;100680.53;5021855;28;20007;-62
2023/03/17 05:52:46;;;;;;;;;;;;;;;7.23;64.12;100675.56;5020938;28;19932;-63
2023/03/17 05:55:12;;;;;;;;;;;;;;;7.22;63.93;100673.88;5030792;28;19913;-62
2023/03/17 05:57:37;;;;;;;;;;;;;;;7.20;63.93;100667.06;5022377;28;19921;-64
2023/03/17 06:00:04;;;;;;;;;;;;;;;7.20;63.78;100659.97;5026853;28;19917;-62
2023/03/17 06:02:29;;;;;;;;;;;;;;;7.19;63.75;100657.50;5025401;28;19917;-63
2023/03/17 06:04:54;;;;;;;;;;;;;;;7.19;64.07;100660.13;5026610;28;20425;-63
2023/03/17 06:07:20;;;;;;;;;;;;;;;7.19;63.97;100652.22;5024106;28;19970;-63
2023/03/17 06:09:45;;;;;;;;;;;;;;;7.17;64.21;100652.38;5025184;28;19964;-63
2023/03/17 06:12:10;;;;;;;;;;;;;;;7.16;64.24;100656.00;5028982;28;19917;-63
2023/03/17 06:14:35;;;;;;;;;;;;;;;7.14;64.62;100658.78;5022184;28;19968;-64
2023/03/17 06:17:01;;;;;;;;;;;;;;;7.14;64.45;100664.06;5026785;28;20304;-62
2023/03/17 06:19:26;;;;;;;;;;;;;;;7.14;64.46;100656.16;5030667;28;19913;-62
2023/03/17 06:21:51;;;;;;;;;;;;;;;7.15;64.30;100655.16;5029190;28;20390;-64
2023/03/17 06:24:17;;;;;;;;;;;;;;;7.15;64.61;100665.72;5028920;28;19917;-63
2023/03/17 06:26:42;;;;;;;;;;;;;;;7.15;64.56;100662.25;5026172;28;20368;-63
2023/03/17 06:29:08;;;;;;;;;;;;;;;7.15;65.08;100668.38;5021981;28;19917;-63
2023/03/17 06:31:34;;;;;;;;;;;;;;;7.15;65.26;100662.25;5023153;28;19948;-63
2023/03/17 06:33:59;;;;;;;;;;;;;;;7.15;65.38;100665.72;5024160;28;19921;-63
2023/03/17 06:36:25;;;;;;;;;;;;;;;7.16;65.37;100661.28;5028898;28;19923;-63
2023/03/17 06:38:51;;;;;;;;;;;;;;;7.18;65.50;100664.59;5026642;28;19951;-63
2023/03/17 06:41:16;;;;;;;;;;;;;;;7.19;65.59;100666.25;5028500;28;20459;-63
2023/03/17 06:43:41;;;;;;;;;;;;;;;7.21;65.30;100679.28;5020576;28;19920;-63
2023/03/17 06:46:07;;;;;;;;;;;;;;;7.23;65.76;100674.69;5027116;28;20358;-63
2023/03/17 06:48:32;;;;;;;;;;;;;;;7.25;65.71;100678.88;5023065;28;19924;-63
2023/03/17 06:50:58;;;;;;;;;;;;;;;7.27;65.85;100678.72;5027773;28;19917;-63
2023/03/17 06:53:23;;;;;;;;;;;;;;;7.30;65.44;100681.03;5027688;28;19921;-62
2023/03/17 06:55:48;;;;;;;;;;;;;;;7.31;65.87;100672.97;5028297;28;19917;-64
2023/03/17 06:58:14;;;;;;;;;;;;;;;7.34;66.10;100671.81;5018480;28;19917;-63
2023/03/17 07:00:39;;;;;;;;;;;;;;;7.38;66.10;100667.88;5023624;28;20370;-63
2023/03/17 07:03:05;;;;;;;;;;;;;;;7.41;66.15;100663.13;5020868;28;19921;-63
2023/03/17 07:05:30;;;;;;;;;;;;;;;7.47;66.08;100661.66;5024658;28;20138;-63
2023/03/17 07:07:56;;;;;;;;;;;;;;;7.51;66.06;100665.66;5021471;28;19921;-63
2023/03/17 07:10:22;;;;;;;;;;;;;;;7.55;66.10;100668.84;5023657;28;19926;-63
2023/03/17 07:12:47;;;;;;;;;;;;;;;7.59;66.37;100671.00;5027299;28;19921;-63
2023/03/17 07:15:13;;;;;;;;;;;;;;;7.62;66.04;100673.34;5020013;28;19924;-63
2023/03/17 07:17:38;;;;;;;;;;;;;;;7.67;66.14;100679.00;5024953;28;19917;-64
2023/03/17 07:20:05;;;;;;;;;;;;;;;7.70;66.18;100667.28;5028486;28;19916;-63
2023/03/17 07:22:30;;;;;;;;;;;;;;;7.76;66.28;100666.66;5023178;28;20298;-63
2023/03/17 07:24:55;;;;;;;;;;;;;;;7.82;66.28;100681.91;5024006;28;19924;-63
2023/03/17 07:27:24;;;;;;;;;;;;;;;7.88;65.88;100669.88;5026044;28;20000;-63
2023/03/17 07:29:49;;;;;;;;;;;;;;;7.96;65.86;100667.25;5025772;28;19912;-63
2023/03/17 07:32:14;;;;;;;;;;;;;;;8.02;65.65;100658.69;5019786;28;20377;-63
2023/03/17 07:34:39;;;;;;;;;;;;;;;8.06;66.06;100665.31;5028230;28;20004;-63
2023/03/17 07:37:05;;;;;;;;;;;;;;;8.13;66.17;100665.53;5021110;28;20274;-63
2023/03/17 07:39:31;;;;;;;;;;;;;;;8.16;65.89;100655.47;5027021;28;19913;-62
2023/03/17 07:41:56;;;;;;;;;;;;;;;8.23;65.83;100645.06;5024724;28;19917;-63
2023/03/17 07:44:22;;;;;;;;;;;;;;;8.32;65.17;100638.78;5025547;28;20014;-63
2023/03/17 07:46:48;;;;;;;;;;;;;;;8.38;64.93;100633.75;5022632;28;19921;-63
2023/03/17 07:49:13;;;;;;;;;;;;;;;8.46;65.08;100647.97;5026171;28;19913;-63
2023/03/17 07:51:41;;;;;;;;;;;;;;;8.50;64.97;100650.13;5022669;28;19929;-63
2023/03/17 07:54:07;;;;;;;;;;;;;;;8.57;65.15;100660.91;5020858;28;19921;-63
2023/03/17 07:56:32;;;;;;;;;;;;;;;8.64;65.33;100669.84;5016782;28;19917;-63
2023/03/17 07:58:57;;;;;;;;;;;;;;;8.69;65.20;100662.25;5025557;28;19920;-63
2023/03/17 08:01:24;;;;;;;;;;;;;;;8.74;65.58;100672.34;5023991;28;20291;-63
2023/03/17 08:03:49;;;;;;;;;;;;;;;8.79;65.22;100672.69;5017124;28;20008;-63
2023/03/17 08:06:14;;;;;;;;;;;;;;;8.85;65.37;100672.88;5019757;28;20011;-63
2023/03/17 08:08:40;;;;;;;;;;;;;;;8.92;65.20;100673.84;5024284;28;19972;-63
2023/03/17 08:11:06;;;;;;;;;;;;;;;8.98;65.33;100672.41;5013449;28;19944;-63
2023/03/17 08:13:31;;;;;;;;;;;;;;;9.05;65.07;100660.16;5025570;28;19924;-63
2023/03/17 08:15:57;;;;;;;;;;;;;;;9.12;64.91;100660.31;5028901;28;19913;-63
2023/03/17 08:18:22;;;;;;;;;;;;;;;9.19;64.90;100664.78;5027311;28;19917;-63
2023/03/17 08:20:47;;;;;;;;;;;;;;;9.25;64.81;100665.91;5027872;28;19921;-63
2023/03/17 08:23:13;;;;;;;;;;;;;;;9.30;64.76;100675.06;5026390;28;19921;-63
2023/03/17 08:25:38;;;;;;;;;;;;;;;9.36;64.72;100667.44;5025784;28;19925;-63
2023/03/17 08:28:03;;;;;;;;;;;;;;;9.42;64.54;100656.97;5020297;28;19974;-63
2023/03/17 08:30:29;;;;;;;;;;;;;;;9.48;64.31;100655.47;5026635;28;19951;-63
2023/03/17 08:32:54;;;;;;;;;;;;;;;9.51;64.21;100655.13;5026019;28;19921;-63
2023/03/17 08:35:19;;;;;;;;;;;;;;;9.56;64.26;100658.13;5020704;28;20552;-64
2023/03/17 08:37:46;;;;;;;;;;;;;;;9.61;64.30;100661.94;5023769;28;20382;-64
2023/03/17 08:40:12;;;;;;;;;;;;;;;9.68;64.19;100658.59;5021697;28;19955;-63
2023/03/17 08:42:37;;;;;;;;;;;;;;;9.75;64.32;100654.25;5020286;28;20306;-63
2023/03/17 08:45:03;;;;;;;;;;;;;;;9.83;64.34;100647.13;5027650;28;20386;-63
2023/03/17 08:47:28;;;;;;;;;;;;;;;9.93;64.35;100634.50;5024772;28;20497;-64
2023/03/17 08:49:55;;;;;;;;;;;;;;;10.02;64.22;100643.25;5018039;28;21093;-63
2023/03/17 08:52:20;;;;;;;;;;;;;;;10.12;64.14;100656.28;5023524;28;19917;-64
2023/03/17 08:54:45;;;;;;;;;;;;;;;10.19;63.64;100651.97;5024751;28;19979;-63
2023/03/17 08:57:11;;;;;;;;;;;;;;;10.30;64.03;100642.81;5025362;28;20429;-63
2023/03/17 08:59:36;;;;;;;;;;;;;;;10.41;63.56;100656.56;5022085;28;19917;-64
2023/03/17 09:02:01;;;;;;;;;;;;;;;10.47;63.13;100653.19;5021523;28;19999;-63
2023/03/17 09:04:27;;;;;;;;;;;;;;;10.58;62.96;100646.66;5023202;28;19932;-63
2023/03/17 09:06:53;;;;;;;;;;;;;;;10.71;63.29;100643.44;5027538;28;19986;-63
2023/03/17 09:09:19;;;;;;;;;;;;;;;10.80;62.56;100639.72;5025981;28;19917;-64
2023/03/17 09:11:44;;;;;;;;;;;;;;;10.92;62.95;100642.78;5028036;28;19932;-64
2023/03/17 09:14:10;;;;;;;;;;;;;;;11.06;62.56;100639.34;5025411;28;19921;-63
2023/03/17 09:16:35;;;;;;;;;;;;;;;11.14;62.26;100648.06;5026933;28;19917;-64
2023/03/17 09:19:01;;;;;;;;;;;;;;;11.23;61.69;100648.81;5019403;28;19963;-64
2023/03/17 09:21:26;;;;;;;;;;;;;;;11.32;61.47;100645.09;5022834;28;19925;-63
2023/03/17 09:23:51;;;;;;;;;;;;;;;11.43;61.24;100649.16;5030248;28;19917;-64
2023/03/17 09:26:18;;;;;;;;;;;;;;;11.55;61.25;100638.88;5027562;28;20012;-64
2023/03/17 09:28:43;;;;;;;;;;;;;;;11.65;61.52;100631.50;5029921;28;19990;-64
2023/03/17 09:31:10;;;;;;;;;;;;;;;11.74;60.98;100636.53;5026865;28;20390;-64
2023/03/17 09:33:36;;;;;;;;;;;;;;;11.79;60.71;100639.50;5025702;28;19928;-63
2023/03/17 09:36:01;;;;;;;;;;;;;;;11.88;60.33;100640.25;5026650;28;19913;-64
2023/03/17 09:38:26;;;;;;;;;;;;;;;11.97;60.02;100659.59;5023771;28;19917;-63
2023/03/17 09:40:53;;;;;;;;;;;;;;;12.04;59.82;100656.00;5027597;28;19921;-64
2023/03/17 09:43:27;;;;;;;;;;;;;;;12.10;59.10;100665.09;5025027;28;19913;-64
2023/03/17 09:45:54;;;;;;;;;;;;;;;12.12;58.57;100665.72;5028887;28;19925;-64
2023/03/17 09:48:35;;;;;;;;;;;;;;;12.10;58.27;100652.59;5024375;28;19925;-64
2023/03/17 09:51:07;;;;;;;;;;;;;;;12.08;58.12;100664.44;5027597;28;20015;-64
2023/03/17 09:53:36;;;;;;;;;;;;;;;12.06;58.07;100671.78;5026555;28;20413;-63
2023/03/17 09:56:06;;;;;;;;;;;;;;;12.06;58.42;100672.63;5030293;28;20650;-64
2023/03/17 09:58:32;;;;;;;;;;;;;;;12.10;58.89;100673.91;5021947;28;19913;-64
2023/03/17 10:00:58;;;;;;;;;;;;;;;12.18;58.82;100670.34;5022943;28;19917;-63
2023/03/17 10:03:24;;;;;;;;;;;;;;;12.24;58.61;100666.94;5025787;28;19932;-64
2023/03/17 10:05:49;;;;;;;;;;;;;;;12.32;58.24;100671.31;5019982;28;19918;-63
2023/03/17 10:08:25;;;;;;;;;;;;;;;12.37;58.17;100669.75;5027010;28;21350;-64
2023/03/17 10:11:09;;;;;;;;;;;;;;;12.52;58.42;100672.38;5022945;28;19979;-64
2023/03/17 10:13:48;;;;;;;;;;;;;;;12.75;58.46;100676.75;5029295;28;19917;-64
2023/03/17 10:16:17;;;;;;;;;;;;;;;12.98;58.13;100693.38;5027525;28;19936;-64
2023/03/17 10:18:48;;;;;;;;;;;;;;;13.14;58.06;100703.78;5019139;28;19917;-63
2023/03/17 10:21:17;;;;;;;;;;;;;;;13.20;56.91;100703.06;5021716;28;19970;-64
2023/03/17 10:23:44;;;;;;;;;;;;;;;13.18;56.73;100712.25;5026819;28;19988;-64
2023/03/17 10:26:21;;;;;;;;;;;;;;;13.21;56.58;100699.38;5029032;28;21052;-64
2023/03/17 10:28:46;;;;;;;;;;;;;;;13.35;56.19;100705.66;5031893;28;20297;-64
2023/03/17 10:31:19;;;;;;;;;;;;;;;13.45;56.55;100710.66;5021710;28;19921;-63
2023/03/17 10:33:47;;;;;;;;;;;;;;;13.56;56.00;100699.47;5025868;28;19913;-63
2023/03/17 10:36:14;;;;;;;;;;;;;;;13.61;55.59;100705.06;5023114;28;19913;-64
2023/03/17 10:38:39;;;;;;;;;;;;;;;13.59;55.55;100705.25;5025232;28;19929;-63
2023/03/17 10:41:06;;;;;;;;;;;;;;;13.66;55.91;100696.47;5028991;28;19917;-63
2023/03/17 10:43:39;;;;;;;;;;;;;;;13.75;55.98;100712.13;5021828;28;20034;-64
2023/03/17 10:46:06;;;;;;;;;;;;;;;13.82;56.63;100720.19;5028003;28;19999;-64
2023/03/17 10:48:35;;;;;;;;;;;;;;;13.87;56.34;100717.75;5026413;28;19924;-64
2023/03/17 10:51:05;;;;;;;;;;;;;;;13.86;55.88;100711.59;5027460;28;20546;-64
2023/03/17 10:53:36;;;;;;;;;;;;;;;13.90;55.63;100715.53;5027785;28;19913;-63
2023/03/17 10:56:09;;;;;;;;;;;;;;;13.91;55.14;100705.69;5024946;28;20035;-64
2023/03/17 10:58:37;;;;;;;;;;;;;;;13.96;55.45;100692.56;5022995;28;19929;-64
2023/03/17 11:01:07;;;;;;;;;;;;;;;14.01;54.99;100695.47;5027022;28;19921;-64
2023/03/17 11:03:36;;;;;;;;;;;;;;;14.06;55.37;100689.53;5026599;28;19920;-64
2023/03/17 11:06:01;;;;;;;;;;;;;;;14.10;55.42;100685.44;5027350;28;19929;-64
2023/03/17 11:08:29;;;;;;;;;;;;;;;14.14;55.26;100687.53;5025721;28;19921;-63
2023/03/17 11:10:55;;;;;;;;;;;;;;;14.20;55.44;100685.94;5019650;28;19921;-64
2023/03/17 11:13:20;;;;;;;;;;;;;;;14.23;55.08;100683.69;5021759;28;20398;-64
2023/03/17 11:15:52;;;;;;;;;;;;;;;14.36;54.85;100677.56;5022461;28;19921;-63
2023/03/17 11:18:27;;;;;;;;;;;;;;;14.47;54.83;100686.91;5021755;28;19973;-64
2023/03/17 11:20:58;;;;;;;;;;;;;;;14.63;54.75;100669.69;5017802;28;19959;-63
2023/03/17 11:23:39;;;;;;;;;;;;;;;14.72;54.40;100671.13;5022314;28;20026;-64
2023/03/17 11:26:24;;;;;;;;;;;;;;;14.80;54.22;100662.94;5020968;28;19983;-64
2023/03/17 11:28:54;;;;;;;;;;;;;;;14.96;53.41;100662.56;5021551;28;19952;-63
2023/03/17 11:31:29;;;;;;;;;;;;;;;15.10;53.37;100663.41;5022085;28;20011;-64
2023/03/17 11:34:07;;;;;;;;;;;;;;;15.21;53.18;100660.13;5025774;28;19918;-64
2023/03/17 11:36:38;;;;;;;;;;;;;;;15.22;52.37;100660.94;5021984;28;19918;-64
2023/03/17 11:39:06;;;;;;;;;;;;;;;15.23;52.57;100670.59;5027190;28;20004;-64
2023/03/17 11:41:43;;;;;;;;;;;;;;;15.28;52.21;100671.63;5024025;28;19917;-64
2023/03/17 11:44:27;;;;;;;;;;;;;;;15.43;52.67;100672.25;5023912;28;19921;-64
2023/03/17 11:47:01;;;;;;;;;;;;;;;15.52;52.79;100667.53;5024898;28;19987;-64
2023/03/17 11:49:29;;;;;;;;;;;;;;;15.65;52.06;100666.72;5027313;28;20275;-64
2023/03/17 11:52:01;;;;;;;;;;;;;;;15.69;51.52;100652.72;5027810;28;19924;-64
2023/03/17 11:54:42;;;;;;;;;;;;;;;15.68;51.19;100643.03;5020002;28;20518;-65
2023/03/17 11:57:14;;;;;;;;;;;;;;;15.80;51.39;100644.03;5025247;28;19924;-64
2023/03/17 11:59:55;;;;;;;;;;;;;;;15.90;51.37;100632.06;5024341;28;20660;-64
2023/03/17 12:02:24;;;;;;;;;;;;;;;16.01;51.29;100624.22;5019366;28;20349;-64
2023/03/17 12:04:56;;;;;;;;;;;;;;;16.09;51.38;100637.34;5018829;28;19925;-64
2023/03/17 12:07:22;;;;;;;;;;;;;;;16.22;51.56;100636.50;5023151;28;20056;-64
2023/03/17 12:10:06;;;;;;;;;;;;;;;16.32;50.99;100628.00;5022443;28;20015;-64
2023/03/17 12:12:37;;;;;;;;;;;;;;;16.45;50.63;100638.63;5017732;28;20003;-64
2023/03/17 12:15:04;;;;;;;;;;;;;;;16.55;50.63;100639.03;5023066;28;20031;-65
2023/03/17 12:17:38;;;;;;;;;;;;;;;16.68;50.69;100632.78;5022586;28;19918;-64
2023/03/17 12:20:17;;;;;;;;;;;;;;;16.79;50.06;100636.66;5019820;28;19953;-63
2023/03/17 12:23:00;;;;;;;;;;;;;;;16.66;49.54;100630.31;5021161;28;19971;-64
2023/03/17 12:25:39;;;;;;;;;;;;;;;16.70;49.99;100628.03;5017760;28;19929;-64
2023/03/17 12:28:13;;;;;;;;;;;;;;;16.70;49.43;100625.34;5022555;28;19932;-64
2023/03/17 12:30:56;;;;;;;;;;;;;;;16.72;49.62;100634.00;5014904;28;19972;-64
2023/03/17 12:33:48;;;;;;;;;;;;;;;16.84;49.50;100626.91;5021036;28;20058;-65
2023/03/17 12:36:14;;;;;;;;;;;;;;;16.89;49.37;100632.44;4992740;28;20036;-65
2023/03/17 12:38:42;;;;;;;;;;;;;;;16.92;48.92;100637.38;5023652;28;19925;-64
2023/03/17 12:41:14;;;;;;;;;;;;;;;17.03;49.43;100633.97;5029042;28;19956;-65